createdAt,value
2019-03-22T00:00:18.395Z,57.33
2019-03-22T00:02:49.184Z,54.50
2019-03-22T00:05:19.870Z,58.00
2019-03-22T00:07:51.428Z,53.90
2019-03-22T00:10:22.122Z,54.83
2019-03-22T00:12:53.156Z,64.97
2019-03-22T00:15:24.091Z,51.50
2019-03-22T00:17:54.784Z,55.30
2019-03-22T00:20:25.443Z,56.80
2019-03-22T00:22:56.181Z,52.90
2019-03-22T00:25:26.865Z,59.33
2019-03-22T00:27:58.158Z,55.97
2019-03-22T00:30:29.385Z,55.70
2019-03-22T00:33:00.112Z,64.70
2019-03-22T00:35:31.084Z,59.37
2019-03-22T00:38:02.069Z,63.70
2019-03-22T00:40:32.831Z,69.80
2019-03-22T00:43:04.128Z,56.70
2019-03-22T00:45:34.813Z,58.17
2019-03-22T00:48:05.837Z,55.80
2019-03-22T00:50:36.813Z,53.70
2019-03-22T00:53:07.772Z,58.70
2019-03-22T00:55:38.487Z,47.23
2019-03-22T00:58:09.527Z,55.00
2019-03-22T01:00:40.609Z,44.77
2019-03-22T01:03:11.328Z,52.73
2019-03-22T01:05:42.179Z,52.03
2019-03-22T01:08:13.168Z,54.50
2019-03-22T01:10:44.224Z,49.10
2019-03-22T01:13:15.099Z,53.53
2019-03-22T01:15:45.767Z,56.20
2019-03-22T01:18:16.551Z,48.07
2019-03-22T01:20:47.239Z,44.83
2019-03-22T01:23:17.968Z,47.87
2019-03-22T01:25:48.655Z,39.80
2019-03-22T01:28:19.337Z,45.67
2019-03-22T01:30:50.433Z,43.17
2019-03-22T01:33:21.142Z,47.63
2019-03-22T01:35:51.824Z,51.83
2019-03-22T01:38:22.542Z,53.47
2019-03-22T01:40:53.267Z,49.00
2019-03-22T01:43:24.050Z,49.73
2019-03-22T01:45:54.764Z,44.40
2019-03-22T01:48:25.416Z,42.17
2019-03-22T01:50:56.351Z,48.03
2019-03-22T01:53:27.079Z,49.47
2019-03-22T01:55:58.081Z,46.87
2019-03-22T01:58:28.820Z,45.57
2019-03-22T02:00:59.514Z,45.77
2019-03-22T02:03:30.238Z,45.33
2019-03-22T02:06:00.945Z,51.90
2019-03-22T02:08:31.638Z,48.80
2019-03-22T02:11:02.359Z,49.50
2019-03-22T02:13:33.034Z,63.43
2019-03-22T02:16:04.160Z,57.77
2019-03-22T02:18:34.821Z,51.33
2019-03-22T02:21:05.785Z,57.07
2019-03-22T02:23:36.479Z,56.73
2019-03-22T02:26:07.323Z,58.47
2019-03-22T02:28:38.011Z,55.73
2019-03-22T02:31:08.747Z,63.37
2019-03-22T02:33:39.435Z,65.57
2019-03-22T02:36:10.148Z,52.73
2019-03-22T02:38:40.877Z,53.40
2019-03-22T02:41:11.543Z,54.17
2019-03-22T02:43:42.255Z,50.17
2019-03-22T02:46:12.920Z,56.83
2019-03-22T02:48:44.146Z,52.83
2019-03-22T02:51:15.054Z,60.13
2019-03-22T02:53:45.759Z,57.70
2019-03-22T02:56:16.486Z,56.37
2019-03-22T02:58:47.751Z,56.13
2019-03-22T03:01:18.502Z,52.30
2019-03-22T03:03:49.158Z,47.43
2019-03-22T03:06:19.836Z,49.67
2019-03-22T03:08:50.898Z,55.70
2019-03-22T03:11:21.552Z,55.07
2019-03-22T03:13:52.484Z,56.07
2019-03-22T03:16:23.219Z,66.07
2019-03-22T03:18:54.247Z,57.50
2019-03-22T03:21:24.920Z,70.80
2019-03-22T03:23:55.667Z,76.70
2019-03-22T03:26:26.349Z,81.87
2019-03-22T03:28:57.413Z,70.87
2019-03-22T03:31:28.109Z,89.57
2019-03-22T03:33:58.867Z,70.17
2019-03-22T03:36:29.548Z,78.17
2019-03-22T03:39:00.240Z,73.67
2019-03-22T03:41:30.907Z,71.80
2019-03-22T03:44:01.686Z,52.40
2019-03-22T03:46:32.335Z,47.00
2019-03-22T03:49:03.032Z,41.20
2019-03-22T03:51:39.788Z,39.97
2019-03-22T03:54:10.522Z,43.47
2019-03-22T03:56:41.239Z,44.60
2019-03-22T03:59:12.373Z,48.30
2019-03-22T04:01:43.078Z,50.30
2019-03-22T04:04:13.736Z,55.00
2019-03-22T04:06:44.463Z,57.03
2019-03-22T04:09:15.145Z,51.43
2019-03-22T04:11:45.841Z,55.20
2019-03-22T04:14:16.950Z,58.57
2019-03-22T04:16:47.688Z,57.00
2019-03-22T04:19:19.087Z,61.77
2019-03-22T04:21:49.761Z,59.60
2019-03-22T04:24:20.478Z,64.80
2019-03-22T04:26:51.159Z,67.43
2019-03-22T04:29:22.168Z,70.87
2019-03-22T04:31:52.878Z,57.43
2019-03-22T04:34:23.897Z,70.00
2019-03-22T04:36:54.612Z,53.70
2019-03-22T04:39:25.628Z,39.57
2019-03-22T04:41:56.345Z,49.13
2019-03-22T04:44:27.491Z,78.20
2019-03-22T04:46:58.324Z,59.30
2019-03-22T04:49:29.960Z,67.27
2019-03-22T04:52:00.839Z,68.03
2019-03-22T04:54:34.728Z,56.80
2019-03-22T04:57:07.758Z,57.27
2019-03-22T04:59:39.863Z,52.30
2019-03-22T05:02:11.763Z,47.20
2019-03-22T05:04:45.277Z,46.30
2019-03-22T05:07:16.393Z,47.47
2019-03-22T05:09:47.945Z,75.03
2019-03-22T05:12:21.473Z,67.60
2019-03-22T05:14:53.462Z,58.73
2019-03-22T05:17:25.385Z,64.57
2019-03-22T05:19:59.118Z,67.23
2019-03-22T05:22:31.736Z,75.77
2019-03-22T05:25:04.819Z,90.23
2019-03-22T05:27:37.452Z,81.37
2019-03-22T05:30:11.536Z,67.07
2019-03-22T05:32:42.574Z,69.40
2019-03-22T05:35:13.624Z,63.63
2019-03-22T05:37:44.606Z,64.20
2019-03-22T05:40:15.304Z,71.67
2019-03-22T05:42:45.970Z,59.80
2019-03-22T05:45:16.893Z,66.03
2019-03-22T05:47:47.894Z,55.73
2019-03-22T05:50:19.127Z,74.30
2019-03-22T05:52:49.765Z,92.97
2019-03-22T05:55:20.453Z,165.33
2019-03-22T05:57:51.147Z,76.90
2019-03-22T06:00:22.428Z,96.90
2019-03-22T06:02:53.173Z,117.73
2019-03-22T06:05:23.898Z,127.47
2019-03-22T06:07:54.573Z,67.53
2019-03-22T06:10:25.229Z,106.73
2019-03-22T06:12:55.910Z,65.77
2019-03-22T06:15:26.609Z,68.87
2019-03-22T06:17:57.591Z,76.73
2019-03-22T06:20:28.251Z,84.37
2019-03-22T06:22:58.919Z,65.43
2019-03-22T06:25:29.632Z,82.27
2019-03-22T06:28:00.715Z,102.40
2019-03-22T06:30:31.385Z,72.83
2019-03-22T06:33:02.246Z,48.83
2019-03-22T06:35:33.256Z,95.97
2019-03-22T06:38:04.040Z,105.87
2019-03-22T06:40:34.694Z,124.73
2019-03-22T06:43:05.673Z,73.73
2019-03-22T06:45:36.717Z,89.90
2019-03-22T06:48:07.779Z,111.83
2019-03-22T06:50:38.772Z,67.73
2019-03-22T06:53:09.463Z,60.17
2019-03-22T06:55:40.966Z,75.40
2019-03-22T06:58:11.856Z,58.83
2019-03-22T07:00:42.846Z,54.80
2019-03-22T07:03:13.598Z,64.97
2019-03-22T07:05:44.723Z,95.93
2019-03-22T07:08:15.645Z,125.47
2019-03-22T07:10:46.266Z,85.33
2019-03-22T07:13:16.967Z,106.97
2019-03-22T07:15:47.607Z,82.77
2019-03-22T07:18:18.724Z,87.20
2019-03-22T07:20:49.806Z,89.17
2019-03-22T07:23:20.474Z,66.03
2019-03-22T07:25:51.678Z,83.03
2019-03-22T07:28:22.476Z,81.20
2019-03-22T07:30:53.158Z,94.03
2019-03-22T07:33:24.370Z,84.20
2019-03-22T07:35:55.096Z,68.60
2019-03-22T07:38:25.875Z,78.30
2019-03-22T07:40:56.559Z,75.10
2019-03-22T07:43:27.185Z,72.63
2019-03-22T07:45:57.898Z,62.93
2019-03-22T07:48:28.740Z,74.87
2019-03-22T07:50:59.858Z,74.53
2019-03-22T07:53:30.814Z,69.97
2019-03-22T07:56:01.625Z,64.80
2019-03-22T07:58:32.865Z,69.07
2019-03-22T08:01:03.712Z,71.30
2019-03-22T08:03:34.427Z,70.00
2019-03-22T08:07:11.165Z,68.93
2019-03-22T08:09:42.746Z,70.60
2019-03-22T08:12:13.413Z,64.37
2019-03-22T08:14:44.121Z,62.10
2019-03-22T08:17:15.116Z,56.40
2019-03-22T08:19:46.130Z,61.27
2019-03-22T08:22:16.792Z,53.20
2019-03-22T08:24:47.519Z,52.00
2019-03-22T08:27:18.414Z,53.83
2019-03-22T08:29:49.208Z,54.40
2019-03-22T08:32:19.879Z,55.23
2019-03-22T08:34:50.693Z,53.60
2019-03-22T08:37:23.599Z,53.23
2019-03-22T08:39:55.909Z,50.37
2019-03-22T08:42:27.189Z,50.43
2019-03-22T08:44:59.014Z,54.23
2019-03-22T08:47:34.315Z,45.03
2019-03-22T08:50:02.590Z,38.97
2019-03-22T08:52:33.633Z,45.87
2019-03-22T08:55:04.361Z,45.07
2019-03-22T08:57:35.208Z,48.67
2019-03-22T09:00:07.685Z,46.27
2019-03-22T09:02:38.725Z,54.63
2019-03-22T09:05:09.933Z,49.70
2019-03-22T09:07:41.081Z,46.93
2019-03-22T09:10:12.605Z,46.60
2019-03-22T09:12:43.300Z,48.50
2019-03-22T09:15:14.085Z,53.27
2019-03-22T09:17:44.751Z,53.80
2019-03-22T09:20:16.059Z,61.43
2019-03-22T09:22:47.027Z,59.40
2019-03-22T09:25:17.887Z,55.37
2019-03-22T09:27:48.850Z,59.73
2019-03-22T09:30:19.635Z,49.77
2019-03-22T09:32:50.345Z,55.10
2019-03-22T09:35:21.830Z,50.53
2019-03-22T09:37:52.497Z,45.37
2019-03-22T09:40:23.199Z,41.80
2019-03-22T09:42:53.911Z,42.33
2019-03-22T09:45:24.634Z,41.53
2019-03-22T09:47:55.837Z,36.07
2019-03-22T09:50:26.500Z,34.67
2019-03-22T09:52:57.238Z,33.73
2019-03-22T09:55:27.970Z,36.23
2019-03-22T09:57:58.766Z,36.70
2019-03-22T10:00:32.394Z,40.57
2019-03-22T10:03:03.953Z,38.37
2019-03-22T10:05:34.970Z,33.83
2019-03-22T10:08:05.713Z,34.77
2019-03-22T10:10:36.801Z,34.83
2019-03-22T10:13:07.478Z,37.57
2019-03-22T10:15:38.109Z,34.60
2019-03-22T10:18:09.085Z,40.70
2019-03-22T10:20:39.795Z,37.37
2019-03-22T10:23:10.452Z,37.50
2019-03-22T10:25:41.560Z,42.40
2019-03-22T10:28:12.373Z,41.80
2019-03-22T10:30:43.006Z,40.37
2019-03-22T10:33:22.719Z,39.23
2019-03-22T10:35:46.070Z,42.53
2019-03-22T10:38:30.715Z,41.13
2019-03-22T10:40:49.459Z,37.90
2019-03-22T10:43:20.144Z,42.90
2019-03-22T10:45:50.885Z,41.77
2019-03-22T10:48:21.936Z,40.00
2019-03-22T10:50:52.622Z,42.60
2019-03-22T10:53:23.353Z,44.17
2019-03-22T10:55:54.309Z,46.60
2019-03-22T10:58:25.302Z,47.70
2019-03-22T11:00:56.605Z,47.80
2019-03-22T11:03:27.977Z,46.00
2019-03-22T11:05:58.746Z,50.80
2019-03-22T11:08:29.461Z,52.00
2019-03-22T11:11:00.091Z,56.30
2019-03-22T11:13:31.080Z,56.47
2019-03-22T11:16:01.799Z,52.10
2019-03-22T11:18:37.374Z,57.50
2019-03-22T11:21:05.831Z,53.83
2019-03-22T11:23:36.523Z,57.20
2019-03-22T11:26:07.167Z,63.20
2019-03-22T11:28:37.980Z,61.53
2019-03-22T11:31:08.711Z,66.13
2019-03-22T11:33:39.457Z,67.90
2019-03-22T11:36:10.140Z,69.53
2019-03-22T11:38:41.101Z,64.63
2019-03-22T11:41:11.805Z,67.30
2019-03-22T11:43:42.612Z,64.93
2019-03-22T11:46:13.291Z,70.40
2019-03-22T11:48:44.335Z,67.50
2019-03-22T11:51:15.049Z,67.53
2019-03-22T11:53:46.113Z,62.80
2019-03-22T11:56:16.872Z,72.10
2019-03-22T11:58:47.651Z,70.27
2019-03-22T12:01:20.423Z,74.43
2019-03-22T12:03:50.664Z,69.70
2019-03-22T12:06:21.354Z,82.70
2019-03-22T12:08:52.056Z,86.03
2019-03-22T12:11:23.027Z,75.37
2019-03-22T12:13:53.760Z,80.03
2019-03-22T12:16:24.447Z,74.60
2019-03-22T12:18:55.176Z,75.53
2019-03-22T12:21:27.521Z,74.13
2019-03-22T12:23:58.219Z,68.83
2019-03-22T12:26:28.937Z,77.60
2019-03-22T12:28:59.611Z,77.13
2019-03-22T12:31:30.680Z,77.47
2019-03-22T12:34:01.357Z,79.03
2019-03-22T12:36:32.076Z,77.37
2019-03-22T12:39:03.585Z,87.20
2019-03-22T12:41:34.320Z,72.60
2019-03-22T12:44:16.151Z,79.40
2019-03-22T12:46:49.908Z,74.90
2019-03-22T12:49:20.578Z,78.00
2019-03-22T12:51:51.262Z,79.70
2019-03-22T12:54:21.928Z,85.93
2019-03-22T12:56:52.731Z,70.23
2019-03-22T12:59:23.380Z,80.37
2019-03-22T13:01:54.463Z,76.67
2019-03-22T13:04:25.403Z,81.07
2019-03-22T13:06:56.054Z,72.87
2019-03-22T13:09:27.010Z,77.73
2019-03-22T13:11:57.911Z,82.00
2019-03-22T13:14:29.313Z,87.43
2019-03-22T13:16:59.967Z,78.60
2019-03-22T13:19:30.666Z,77.77
2019-03-22T13:22:01.360Z,74.63
2019-03-22T13:24:32.320Z,71.30
2019-03-22T13:27:02.991Z,78.57
2019-03-22T13:29:33.831Z,78.80
2019-03-22T13:32:04.801Z,66.57
2019-03-22T13:34:35.512Z,73.53
2019-03-22T13:37:06.157Z,65.80
2019-03-22T13:39:36.882Z,62.03
2019-03-22T13:42:07.574Z,64.77
2019-03-22T13:44:38.327Z,62.33
2019-03-22T13:47:09.049Z,66.73
2019-03-22T13:49:39.743Z,61.20
2019-03-22T13:52:10.509Z,61.13
2019-03-22T13:54:41.363Z,62.20
2019-03-22T13:57:12.434Z,61.33
2019-03-22T13:59:43.180Z,58.97
2019-03-22T14:02:13.819Z,69.33
2019-03-22T14:04:44.507Z,72.30
2019-03-22T14:07:15.169Z,70.33
2019-03-22T14:09:45.857Z,74.03
2019-03-22T14:12:16.522Z,64.50
2019-03-22T14:14:47.185Z,66.90
2019-03-22T14:17:17.941Z,67.63
2019-03-22T14:19:48.634Z,66.63
2019-03-22T14:22:19.362Z,62.77
2019-03-22T14:24:50.075Z,66.07
2019-03-22T14:27:20.812Z,65.57
2019-03-22T14:29:51.547Z,69.30
2019-03-22T14:32:22.462Z,69.13
2019-03-22T14:34:53.100Z,63.47
2019-03-22T14:37:23.803Z,67.30
2019-03-22T14:39:54.493Z,61.80
2019-03-22T14:42:25.226Z,69.73
2019-03-22T14:44:56.695Z,64.20
2019-03-22T14:47:27.390Z,69.53
2019-03-22T14:49:58.094Z,71.43
2019-03-22T14:52:28.770Z,65.10
2019-03-22T14:54:59.445Z,68.00
2019-03-22T14:57:30.396Z,67.07
2019-03-22T15:00:01.120Z,76.13
2019-03-22T15:02:31.795Z,62.33
2019-03-22T15:05:02.482Z,65.93
2019-03-22T15:07:33.148Z,67.10
2019-03-22T15:10:04.701Z,74.73
2019-03-22T15:12:35.432Z,70.53
2019-03-22T15:15:33.113Z,74.37
2019-03-22T15:18:25.592Z,72.73
2019-03-22T15:21:27.646Z,77.30
2019-03-22T15:24:27.940Z,71.90
2019-03-22T15:27:16.548Z,65.43
2019-03-22T15:30:05.294Z,71.20
2019-03-22T15:32:53.969Z,70.13
2019-03-22T15:35:42.738Z,65.73
2019-03-22T15:38:32.136Z,74.90
2019-03-22T15:41:03.049Z,73.90
2019-03-22T15:43:33.737Z,67.90
2019-03-22T15:46:04.436Z,67.80
2019-03-22T15:48:35.425Z,74.30
2019-03-22T15:51:06.380Z,66.70
2019-03-22T15:53:37.435Z,74.63
2019-03-22T15:56:08.133Z,82.53
2019-03-22T15:58:39.928Z,77.77
2019-03-22T16:01:10.645Z,77.83
2019-03-22T16:03:44.406Z,88.30
2019-03-22T16:06:14.168Z,76.83
2019-03-22T16:08:44.939Z,69.27
2019-03-22T16:11:15.624Z,75.97
2019-03-22T16:13:46.903Z,72.97
2019-03-22T16:16:17.680Z,82.00
2019-03-22T16:18:48.398Z,75.37
2019-03-22T16:21:19.483Z,81.70
2019-03-22T16:23:50.140Z,81.17
2019-03-22T16:26:20.827Z,79.40
2019-03-22T16:28:51.752Z,69.53
2019-03-22T16:31:22.456Z,77.83
2019-03-22T16:33:54.736Z,67.53
2019-03-22T16:36:25.813Z,71.20
2019-03-22T16:38:56.899Z,77.43
2019-03-22T16:41:27.663Z,75.47
2019-03-22T16:43:58.319Z,78.37
2019-03-22T16:46:28.990Z,83.03
2019-03-22T16:49:00.789Z,77.60
2019-03-22T16:51:31.544Z,78.10
2019-03-22T16:54:02.568Z,78.93
2019-03-22T16:56:33.967Z,75.13
2019-03-22T16:59:04.656Z,75.00
2019-03-22T17:01:35.323Z,73.53
2019-03-22T17:04:06.632Z,75.40
2019-03-22T17:06:37.999Z,74.03
2019-03-22T17:09:09.575Z,72.07
2019-03-22T17:11:40.270Z,73.87
2019-03-22T17:14:10.924Z,71.90
2019-03-22T17:16:41.599Z,69.13
2019-03-22T17:19:12.334Z,75.30
2019-03-22T17:21:43.132Z,74.60
2019-03-22T17:24:14.004Z,76.37
2019-03-22T17:26:45.610Z,74.80
2019-03-22T17:29:16.385Z,77.00
2019-03-22T17:31:47.374Z,89.87
2019-03-22T17:34:18.189Z,75.00
2019-03-22T17:36:49.346Z,76.57
2019-03-22T17:39:20.411Z,72.43
2019-03-22T17:41:51.141Z,74.30
2019-03-22T17:44:21.911Z,71.53
2019-03-22T17:46:52.565Z,72.47
2019-03-22T17:49:23.249Z,73.10
2019-03-22T17:51:53.910Z,79.37
2019-03-22T17:54:24.932Z,75.87
2019-03-22T17:56:55.674Z,79.67
2019-03-22T17:59:26.412Z,87.17
2019-03-22T18:01:57.142Z,73.90
2019-03-22T18:04:28.107Z,84.27
2019-03-22T18:06:58.789Z,87.23
2019-03-22T18:09:29.529Z,95.70
2019-03-22T18:12:00.776Z,88.13
2019-03-22T18:14:31.631Z,77.73
2019-03-22T18:17:02.388Z,96.30
2019-03-22T18:19:33.493Z,91.47
2019-03-22T18:22:04.432Z,99.73
2019-03-22T18:24:35.119Z,100.17
2019-03-22T18:27:06.204Z,103.20
2019-03-22T18:29:36.913Z,95.40
2019-03-22T18:32:08.849Z,95.30
2019-03-22T18:34:39.537Z,98.37
2019-03-22T18:37:10.272Z,99.43
2019-03-22T18:39:41.065Z,104.60
2019-03-22T18:42:12.117Z,101.00
2019-03-22T18:44:42.847Z,100.77
2019-03-22T18:47:13.586Z,93.10
2019-03-22T18:49:44.354Z,95.00
2019-03-22T18:52:16.133Z,101.93
2019-03-22T18:54:47.069Z,96.73
2019-03-22T18:57:18.244Z,99.47
2019-03-22T18:59:49.397Z,93.33
2019-03-22T19:02:20.062Z,92.00
2019-03-22T19:04:50.761Z,91.60
2019-03-22T19:07:21.495Z,90.87
2019-03-22T19:09:52.383Z,90.60
2019-03-22T19:12:23.954Z,87.23
2019-03-22T19:14:55.172Z,95.73
2019-03-22T19:17:26.326Z,100.23
2019-03-22T19:19:57.207Z,97.90
2019-03-22T19:22:27.859Z,92.00
2019-03-22T19:24:58.584Z,95.53
2019-03-22T19:27:29.534Z,102.97
2019-03-22T19:30:00.387Z,107.30
2019-03-22T19:32:31.065Z,99.33
2019-03-22T19:35:01.912Z,95.00
2019-03-22T19:37:32.560Z,100.50
2019-03-22T19:40:03.408Z,111.70
2019-03-22T19:42:34.480Z,114.57
2019-03-22T19:45:06.733Z,113.37
2019-03-22T19:47:37.684Z,112.50
2019-03-22T19:50:08.869Z,112.50
2019-03-22T19:52:39.839Z,114.50
2019-03-22T19:55:11.645Z,109.80
2019-03-22T19:57:42.977Z,104.97
2019-03-22T20:00:14.037Z,113.17
2019-03-22T20:02:44.765Z,110.70
2019-03-22T20:05:29.316Z,119.87
2019-03-22T20:08:01.218Z,123.87
2019-03-22T20:10:31.959Z,125.20
2019-03-22T20:13:02.768Z,122.13
2019-03-22T20:15:33.781Z,127.80
2019-03-22T20:18:04.697Z,117.30
2019-03-22T20:20:36.300Z,115.93
2019-03-22T20:23:07.231Z,123.43
2019-03-22T20:25:38.028Z,128.60
2019-03-22T20:28:08.871Z,127.80
2019-03-22T20:30:39.549Z,129.27
2019-03-22T20:33:10.219Z,119.67
2019-03-22T20:35:41.623Z,119.50
2019-03-22T20:38:12.322Z,122.23
2019-03-22T20:40:42.975Z,117.07
2019-03-22T20:43:13.743Z,120.47
2019-03-22T20:45:44.752Z,125.23
2019-03-22T20:48:15.456Z,131.20
2019-03-22T20:50:46.202Z,124.63
2019-03-22T20:53:17.140Z,127.93
2019-03-22T20:55:47.831Z,127.27
2019-03-22T20:58:18.848Z,120.73
2019-03-22T21:00:49.741Z,125.90
2019-03-22T21:03:20.445Z,123.67
2019-03-22T21:05:51.306Z,117.03
2019-03-22T21:08:22.598Z,123.73
2019-03-22T21:10:53.329Z,122.37
2019-03-22T21:13:23.965Z,135.70
2019-03-22T21:15:54.617Z,119.53
2019-03-22T21:18:25.430Z,126.53
2019-03-22T21:20:56.372Z,113.03
2019-03-22T21:23:35.909Z,117.80
2019-03-22T21:26:00.336Z,112.23
2019-03-22T21:28:31.182Z,122.97
2019-03-22T21:31:02.813Z,123.30
2019-03-22T21:33:33.765Z,130.40
2019-03-22T21:36:05.021Z,130.40
2019-03-22T21:38:35.721Z,142.10
2019-03-22T21:41:06.966Z,127.73
2019-03-22T21:43:38.358Z,131.87
2019-03-22T21:46:09.003Z,116.37
2019-03-22T21:48:39.738Z,126.93
2019-03-22T21:51:10.408Z,117.87
2019-03-22T21:53:41.139Z,140.53
2019-03-22T21:56:11.852Z,135.87
2019-03-22T21:58:42.823Z,121.90
2019-03-22T22:01:13.750Z,135.57
2019-03-22T22:03:44.730Z,128.97
2019-03-22T22:06:15.671Z,131.63
2019-03-22T22:08:46.420Z,119.87
2019-03-22T22:11:17.613Z,123.90
2019-03-22T22:13:48.337Z,111.43
2019-03-22T22:16:19.348Z,132.20
2019-03-22T22:18:50.045Z,132.13
2019-03-22T22:21:21.136Z,131.03
2019-03-22T22:23:52.462Z,125.07
2019-03-22T22:26:23.152Z,125.80
2019-03-22T22:28:54.239Z,133.10
2019-03-22T22:31:25.195Z,117.73
2019-03-22T22:33:55.851Z,132.80
2019-03-22T22:36:26.525Z,130.57
2019-03-22T22:38:57.559Z,126.07
2019-03-22T22:41:28.290Z,128.03
2019-03-22T22:43:59.592Z,121.97
2019-03-22T22:46:30.595Z,113.53
2019-03-22T22:49:01.547Z,125.87
2019-03-22T22:51:32.646Z,134.23
2019-03-22T22:54:03.937Z,127.17
2019-03-22T22:56:35.014Z,117.17
2019-03-22T22:59:05.791Z,124.40
2019-03-22T23:01:36.685Z,117.70
2019-03-22T23:04:07.359Z,121.90
2019-03-22T23:06:38.124Z,117.73
2019-03-22T23:09:09.402Z,118.27
2019-03-22T23:11:40.640Z,119.20
2019-03-22T23:14:11.441Z,130.40
2019-03-22T23:16:42.134Z,127.17
2019-03-22T23:19:13.108Z,124.40
2019-03-22T23:21:43.765Z,123.57
2019-03-22T23:24:14.398Z,132.27
2019-03-22T23:26:45.398Z,117.23
2019-03-22T23:29:16.051Z,131.47
2019-03-22T23:31:49.124Z,126.80
2019-03-22T23:34:19.176Z,128.00
2019-03-22T23:36:49.980Z,127.87
2019-03-22T23:39:20.641Z,121.73
2019-03-22T23:41:51.388Z,150.80
2019-03-22T23:44:22.405Z,121.63
2019-03-22T23:46:53.174Z,123.70
2019-03-22T23:49:24.135Z,132.83
2019-03-22T23:51:55.189Z,124.20
2019-03-22T23:54:25.852Z,122.67
2019-03-22T23:56:56.525Z,119.47
2019-03-22T23:59:27.507Z,115.73
